sensor_id;sensor_type;location;lat;lon;timestamp;temperature;humidity
463;DHT22;218;51.902;9.542;2023-02-10T00:01:03;7.30;1.00
463;DHT22;218;51.902;9.542;2023-02-10T00:05:58;7.40;1.00
463;DHT22;218;51.902;9.542;2023-02-10T00:08:26;7.30;1.00
463;DHT22;218;51.902;9.542;2023-02-10T00:10:56;7.30;1.00
463;DHT22;218;51.902;9.542;2023-02-10T00:13:24;7.40;1.00
463;DHT22;218;51.902;9.542;2023-02-10T00:15:50;8.10;1.00
463;DHT22;218;51.902;9.542;2023-02-10T00:18:17;7.40;1.00
463;DHT22;218;51.902;9.542;2023-02-10T00:20:44;7.30;1.00
463;DHT22;218;51.902;9.542;2023-02-10T00:23:11;7.30;1.00
463;DHT22;218;51.902;9.542;2023-02-10T00:25:40;7.40;1.00
463;DHT22;218;51.902;9.542;2023-02-10T00:28:06;7.50;1.00
463;DHT22;218;51.902;9.542;2023-02-10T00:30:34;7.40;1.00
463;DHT22;218;51.902;9.542;2023-02-10T00:33:01;7.40;1.00
463;DHT22;218;51.902;9.542;2023-02-10T00:35:27;7.40;1.00
463;DHT22;218;51.902;9.542;2023-02-10T00:40:21;7.50;1.00
463;DHT22;218;51.902;9.542;2023-02-10T00:42:50;7.40;1.00
463;DHT22;218;51.902;9.542;2023-02-10T00:45:17;7.40;1.00
463;DHT22;218;51.902;9.542;2023-02-10T00:47:44;7.50;1.00
463;DHT22;218;51.902;9.542;2023-02-10T00:50:12;7.50;1.00
463;DHT22;218;51.902;9.542;2023-02-10T00:52:39;7.50;1.00
463;DHT22;218;51.902;9.542;2023-02-10T00:55:06;7.40;1.00
463;DHT22;218;51.902;9.542;2023-02-10T00:57:33;7.50;1.00
463;DHT22;218;51.902;9.542;2023-02-10T01:00:01;7.50;1.00
463;DHT22;218;51.902;9.542;2023-02-10T01:07:22;7.40;1.00
463;DHT22;218;51.902;9.542;2023-02-10T01:09:49;7.50;1.00
463;DHT22;218;51.902;9.542;2023-02-10T01:12:16;7.40;1.00
463;DHT22;218;51.902;9.542;2023-02-10T01:14:43;7.40;1.00
463;DHT22;218;51.902;9.542;2023-02-10T01:17:11;7.40;1.00
463;DHT22;218;51.902;9.542;2023-02-10T01:19:38;7.50;1.00
463;DHT22;218;51.902;9.542;2023-02-10T01:22:05;7.40;1.00
463;DHT22;218;51.902;9.542;2023-02-10T01:24:32;7.40;1.00
463;DHT22;218;51.902;9.542;2023-02-10T01:29:26;7.50;1.00
463;DHT22;218;51.902;9.542;2023-02-10T01:31:52;7.50;1.00
463;DHT22;218;51.902;9.542;2023-02-10T01:34:21;7.50;1.00
463;DHT22;218;51.902;9.542;2023-02-10T01:36:48;7.50;1.00
463;DHT22;218;51.902;9.542;2023-02-10T01:39:15;7.50;1.00
463;DHT22;218;51.902;9.542;2023-02-10T01:41:42;7.40;1.00
463;DHT22;218;51.902;9.542;2023-02-10T01:47:10;7.50;1.00
463;DHT22;218;51.902;9.542;2023-02-10T01:49:41;7.50;1.00
463;DHT22;218;51.902;9.542;2023-02-10T01:52:11;9.50;1.00
463;DHT22;218;51.902;9.542;2023-02-10T01:54:41;7.30;1.00
463;DHT22;218;51.902;9.542;2023-02-10T01:57:08;8.60;1.00
463;DHT22;218;51.902;9.542;2023-02-10T01:59:37;7.40;1.00
463;DHT22;218;51.902;9.542;2023-02-10T02:02:06;7.30;1.00
463;DHT22;218;51.902;9.542;2023-02-10T02:04:35;7.30;1.00
463;DHT22;218;51.902;9.542;2023-02-10T02:07:05;9.30;1.00
463;DHT22;218;51.902;9.542;2023-02-10T02:09:32;7.30;1.00
463;DHT22;218;51.902;9.542;2023-02-10T02:12:12;7.30;1.00
463;DHT22;218;51.902;9.542;2023-02-10T02:14:45;7.20;1.00
463;DHT22;218;51.902;9.542;2023-02-10T02:17:20;7.30;1.00
463;DHT22;218;51.902;9.542;2023-02-10T02:23:23;7.50;1.00
463;DHT22;218;51.902;9.542;2023-02-10T02:29:14;7.30;1.00
463;DHT22;218;51.902;9.542;2023-02-10T02:31:57;7.30;1.00
463;DHT22;218;51.902;9.542;2023-02-10T02:34:30;7.40;1.00
463;DHT22;218;51.902;9.542;2023-02-10T02:37:02;8.40;1.00
463;DHT22;218;51.902;9.542;2023-02-10T02:39:32;7.40;1.00
463;DHT22;218;51.902;9.542;2023-02-10T02:42:16;7.80;1.00
463;DHT22;218;51.902;9.542;2023-02-10T02:44:45;7.30;1.00
463;DHT22;218;51.902;9.542;2023-02-10T02:47:19;7.40;1.00
463;DHT22;218;51.902;9.542;2023-02-10T02:49:56;7.40;1.00
463;DHT22;218;51.902;9.542;2023-02-10T02:55:03;7.40;1.00
463;DHT22;218;51.902;9.542;2023-02-10T02:57:41;7.30;1.00
463;DHT22;218;51.902;9.542;2023-02-10T03:00:13;7.90;1.00
463;DHT22;218;51.902;9.542;2023-02-10T03:02:44;7.40;1.00
463;DHT22;218;51.902;9.542;2023-02-10T03:05:17;7.40;1.00
463;DHT22;218;51.902;9.542;2023-02-10T03:07:44;7.40;1.00
463;DHT22;218;51.902;9.542;2023-02-10T03:10:11;7.40;1.00
463;DHT22;218;51.902;9.542;2023-02-10T03:12:38;7.50;1.00
463;DHT22;218;51.902;9.542;2023-02-10T03:15:05;7.40;1.00
463;DHT22;218;51.902;9.542;2023-02-10T03:17:32;7.40;1.00
463;DHT22;218;51.902;9.542;2023-02-10T03:20:00;7.40;1.00
463;DHT22;218;51.902;9.542;2023-02-10T03:22:27;7.40;1.00
463;DHT22;218;51.902;9.542;2023-02-10T03:24:54;7.40;1.00
463;DHT22;218;51.902;9.542;2023-02-10T03:27:20;7.60;1.00
463;DHT22;218;51.902;9.542;2023-02-10T03:29:47;8.30;1.00
463;DHT22;218;51.902;9.542;2023-02-10T03:32:15;7.40;1.00
463;DHT22;218;51.902;9.542;2023-02-10T03:34:42;7.40;1.00
463;DHT22;218;51.902;9.542;2023-02-10T03:37:11;7.80;1.00
463;DHT22;218;51.902;9.542;2023-02-10T03:39:38;7.70;1.00
463;DHT22;218;51.902;9.542;2023-02-10T03:42:05;7.40;1.00
463;DHT22;218;51.902;9.542;2023-02-10T03:44:32;7.40;1.00
463;DHT22;218;51.902;9.542;2023-02-10T03:46:59;7.30;1.00
463;DHT22;218;51.902;9.542;2023-02-10T03:49:26;7.30;1.00
463;DHT22;218;51.902;9.542;2023-02-10T03:51:53;7.30;1.00
463;DHT22;218;51.902;9.542;2023-02-10T03:54:21;7.20;1.00
463;DHT22;218;51.902;9.542;2023-02-10T03:56:48;7.40;1.00
463;DHT22;218;51.902;9.542;2023-02-10T03:59:15;7.20;1.00
463;DHT22;218;51.902;9.542;2023-02-10T04:01:42;7.10;1.00
463;DHT22;218;51.902;9.542;2023-02-10T04:04:08;8.80;1.00
463;DHT22;218;51.902;9.542;2023-02-10T04:06:35;7.60;1.00
463;DHT22;218;51.902;9.542;2023-02-10T04:09:02;7.00;1.00
463;DHT22;218;51.902;9.542;2023-02-10T04:11:31;7.00;1.00
463;DHT22;218;51.902;9.542;2023-02-10T04:13:57;7.40;1.00
463;DHT22;218;51.902;9.542;2023-02-10T04:16:24;8.60;1.00
463;DHT22;218;51.902;9.542;2023-02-10T04:18:53;7.40;1.00
463;DHT22;218;51.902;9.542;2023-02-10T04:21:20;7.90;1.00
463;DHT22;218;51.902;9.542;2023-02-10T04:23:47;6.90;1.00
463;DHT22;218;51.902;9.542;2023-02-10T04:26:14;6.80;1.00
463;DHT22;218;51.902;9.542;2023-02-10T04:28:42;6.90;1.00
463;DHT22;218;51.902;9.542;2023-02-10T04:31:09;6.90;1.00
463;DHT22;218;51.902;9.542;2023-02-10T04:33:36;8.80;1.00
463;DHT22;218;51.902;9.542;2023-02-10T04:36:04;6.90;1.00
463;DHT22;218;51.902;9.542;2023-02-10T04:38:31;6.80;1.00
463;DHT22;218;51.902;9.542;2023-02-10T04:40:58;7.50;1.00
463;DHT22;218;51.902;9.542;2023-02-10T04:43:25;6.80;1.00
463;DHT22;218;51.902;9.542;2023-02-10T04:45:53;6.80;1.00
463;DHT22;218;51.902;9.542;2023-02-10T04:48:20;6.70;1.00
463;DHT22;218;51.902;9.542;2023-02-10T04:50:47;6.80;1.00
463;DHT22;218;51.902;9.542;2023-02-10T04:53:15;6.70;1.00
463;DHT22;218;51.902;9.542;2023-02-10T04:55:42;6.70;1.00
463;DHT22;218;51.902;9.542;2023-02-10T04:58:08;6.70;1.00
463;DHT22;218;51.902;9.542;2023-02-10T05:00:35;6.90;1.00
463;DHT22;218;51.902;9.542;2023-02-10T05:03:03;6.50;1.00
463;DHT22;218;51.902;9.542;2023-02-10T05:05:30;8.00;1.00
463;DHT22;218;51.902;9.542;2023-02-10T05:07:57;6.50;1.00
463;DHT22;218;51.902;9.542;2023-02-10T05:10:24;6.50;1.00
463;DHT22;218;51.902;9.542;2023-02-10T05:12:51;6.50;1.00
463;DHT22;218;51.902;9.542;2023-02-10T05:15:18;6.40;1.00
463;DHT22;218;51.902;9.542;2023-02-10T05:17:45;6.40;1.00
463;DHT22;218;51.902;9.542;2023-02-10T05:20:13;6.40;1.00
463;DHT22;218;51.902;9.542;2023-02-10T05:22:40;6.30;1.00
463;DHT22;218;51.902;9.542;2023-02-10T05:25:08;6.40;1.00
463;DHT22;218;51.902;9.542;2023-02-10T05:27:35;6.30;1.00
463;DHT22;218;51.902;9.542;2023-02-10T05:30:03;7.20;1.00
463;DHT22;218;51.902;9.542;2023-02-10T05:32:31;6.40;1.00
463;DHT22;218;51.902;9.542;2023-02-10T05:34:58;6.40;1.00
463;DHT22;218;51.902;9.542;2023-02-10T05:37:26;6.40;1.00
463;DHT22;218;51.902;9.542;2023-02-10T05:39:53;6.40;1.00
463;DHT22;218;51.902;9.542;2023-02-10T05:42:20;6.30;1.00
463;DHT22;218;51.902;9.542;2023-02-10T05:44:47;6.80;1.00
463;DHT22;218;51.902;9.542;2023-02-10T05:47:14;6.40;1.00
463;DHT22;218;51.902;9.542;2023-02-10T05:49:41;8.10;1.00
463;DHT22;218;51.902;9.542;2023-02-10T05:52:08;6.50;1.00
463;DHT22;218;51.902;9.542;2023-02-10T05:54:36;6.50;1.00
463;DHT22;218;51.902;9.542;2023-02-10T05:57:03;6.40;1.00
463;DHT22;218;51.902;9.542;2023-02-10T05:59:30;6.50;1.00
463;DHT22;218;51.902;9.542;2023-02-10T06:01:57;6.70;1.00
463;DHT22;218;51.902;9.542;2023-02-10T06:04:24;6.50;1.00
463;DHT22;218;51.902;9.542;2023-02-10T06:06:51;6.50;1.00
463;DHT22;218;51.902;9.542;2023-02-10T06:09:18;7.90;1.00
463;DHT22;218;51.902;9.542;2023-02-10T06:11:49;6.60;1.00
463;DHT22;218;51.902;9.542;2023-02-10T06:14:16;6.60;1.00
463;DHT22;218;51.902;9.542;2023-02-10T06:16:43;6.60;1.00
463;DHT22;218;51.902;9.542;2023-02-10T06:19:10;6.60;1.00
463;DHT22;218;51.902;9.542;2023-02-10T06:21:37;6.60;1.00
463;DHT22;218;51.902;9.542;2023-02-10T06:24:05;6.70;1.00
463;DHT22;218;51.902;9.542;2023-02-10T06:26:32;6.70;1.00
463;DHT22;218;51.902;9.542;2023-02-10T06:29:00;6.70;1.00
463;DHT22;218;51.902;9.542;2023-02-10T06:31:27;6.70;1.00
463;DHT22;218;51.902;9.542;2023-02-10T06:33:54;6.80;1.00
463;DHT22;218;51.902;9.542;2023-02-10T06:36:20;8.10;1.00
463;DHT22;218;51.902;9.542;2023-02-10T06:38:47;7.00;1.00
463;DHT22;218;51.902;9.542;2023-02-10T06:41:14;6.80;1.00
463;DHT22;218;51.902;9.542;2023-02-10T06:43:41;6.80;1.00
463;DHT22;218;51.902;9.542;2023-02-10T06:46:10;7.50;1.00
463;DHT22;218;51.902;9.542;2023-02-10T06:48:38;7.30;1.00
463;DHT22;218;51.902;9.542;2023-02-10T06:51:06;6.80;1.00
463;DHT22;218;51.902;9.542;2023-02-10T06:53:33;6.90;1.00
463;DHT22;218;51.902;9.542;2023-02-10T06:56:01;8.20;1.00
463;DHT22;218;51.902;9.542;2023-02-10T06:58:28;6.90;1.00
463;DHT22;218;51.902;9.542;2023-02-10T07:00:55;7.00;1.00
463;DHT22;218;51.902;9.542;2023-02-10T07:03:25;7.00;1.00
463;DHT22;218;51.902;9.542;2023-02-10T07:05:52;6.90;1.00
463;DHT22;218;51.902;9.542;2023-02-10T07:08:19;7.00;1.00
463;DHT22;218;51.902;9.542;2023-02-10T07:10:46;7.00;1.00
463;DHT22;218;51.902;9.542;2023-02-10T07:13:13;8.60;1.00
463;DHT22;218;51.902;9.542;2023-02-10T07:15:40;7.10;1.00
463;DHT22;218;51.902;9.542;2023-02-10T07:18:07;7.00;1.00
463;DHT22;218;51.902;9.542;2023-02-10T07:20:35;7.80;1.00
463;DHT22;218;51.902;9.542;2023-02-10T07:23:03;7.00;1.00
463;DHT22;218;51.902;9.542;2023-02-10T07:25:29;9.10;1.00
463;DHT22;218;51.902;9.542;2023-02-10T07:27:56;7.40;1.00
463;DHT22;218;51.902;9.542;2023-02-10T07:30:23;7.10;1.00
463;DHT22;218;51.902;9.542;2023-02-10T07:32:51;9.10;1.00
463;DHT22;218;51.902;9.542;2023-02-10T07:35:18;7.20;1.00
463;DHT22;218;51.902;9.542;2023-02-10T07:37:46;7.20;1.00
463;DHT22;218;51.902;9.542;2023-02-10T07:40:13;7.20;1.00
463;DHT22;218;51.902;9.542;2023-02-10T07:42:40;8.00;1.00
463;DHT22;218;51.902;9.542;2023-02-10T07:45:07;7.90;1.00
463;DHT22;218;51.902;9.542;2023-02-10T07:47:34;7.20;1.00
463;DHT22;218;51.902;9.542;2023-02-10T07:50:01;7.30;1.00
463;DHT22;218;51.902;9.542;2023-02-10T07:52:28;8.80;1.00
463;DHT22;218;51.902;9.542;2023-02-10T07:54:57;7.30;1.00
463;DHT22;218;51.902;9.542;2023-02-10T07:57:24;8.20;1.00
463;DHT22;218;51.902;9.542;2023-02-10T07:59:51;7.30;1.00
463;DHT22;218;51.902;9.542;2023-02-10T08:02:18;7.40;1.00
463;DHT22;218;51.902;9.542;2023-02-10T08:04:45;8.30;1.00
463;DHT22;218;51.902;9.542;2023-02-10T08:07:12;7.40;1.00
463;DHT22;218;51.902;9.542;2023-02-10T08:09:39;7.30;1.00
463;DHT22;218;51.902;9.542;2023-02-10T08:12:07;8.40;1.00
463;DHT22;218;51.902;9.542;2023-02-10T08:14:34;6.90;1.00
463;DHT22;218;51.902;9.542;2023-02-10T08:17:01;7.40;1.00
463;DHT22;218;51.902;9.542;2023-02-10T08:19:28;7.40;1.00
463;DHT22;218;51.902;9.542;2023-02-10T08:21:55;8.20;1.00
463;DHT22;218;51.902;9.542;2023-02-10T08:24:22;7.50;1.00
463;DHT22;218;51.902;9.542;2023-02-10T08:26:49;7.50;1.00
463;DHT22;218;51.902;9.542;2023-02-10T08:29:17;7.50;1.00
463;DHT22;218;51.902;9.542;2023-02-10T08:31:44;7.70;1.00
463;DHT22;218;51.902;9.542;2023-02-10T08:34:14;7.60;1.00
463;DHT22;218;51.902;9.542;2023-02-10T08:36:42;8.50;1.00
463;DHT22;218;51.902;9.542;2023-02-10T08:39:09;7.60;1.00
463;DHT22;218;51.902;9.542;2023-02-10T08:41:36;7.60;1.00
463;DHT22;218;51.902;9.542;2023-02-10T08:44:04;7.60;1.00
463;DHT22;218;51.902;9.542;2023-02-10T08:46:32;7.70;1.00
463;DHT22;218;51.902;9.542;2023-02-10T08:48:59;7.70;1.00
463;DHT22;218;51.902;9.542;2023-02-10T08:51:27;7.70;1.00
463;DHT22;218;51.902;9.542;2023-02-10T08:53:54;7.80;1.00
463;DHT22;218;51.902;9.542;2023-02-10T08:56:22;7.80;1.00
463;DHT22;218;51.902;9.542;2023-02-10T08:58:49;7.90;1.00
463;DHT22;218;51.902;9.542;2023-02-10T09:01:18;7.90;1.00
463;DHT22;218;51.902;9.542;2023-02-10T09:03:47;7.80;1.00
463;DHT22;218;51.902;9.542;2023-02-10T09:06:16;7.90;1.00
463;DHT22;218;51.902;9.542;2023-02-10T09:08:43;7.80;1.00
463;DHT22;218;51.902;9.542;2023-02-10T09:11:13;7.80;1.00
463;DHT22;218;51.902;9.542;2023-02-10T09:13:40;8.00;1.00
463;DHT22;218;51.902;9.542;2023-02-10T09:16:07;7.90;1.00
463;DHT22;218;51.902;9.542;2023-02-10T09:21:03;8.00;1.00
463;DHT22;218;51.902;9.542;2023-02-10T09:23:30;8.00;1.00
463;DHT22;218;51.902;9.542;2023-02-10T09:25:58;8.00;1.00
463;DHT22;218;51.902;9.542;2023-02-10T09:28:26;8.00;1.00
463;DHT22;218;51.902;9.542;2023-02-10T09:30:53;8.00;1.00
463;DHT22;218;51.902;9.542;2023-02-10T09:33:21;8.10;1.00
463;DHT22;218;51.902;9.542;2023-02-10T09:35:48;8.10;1.00
463;DHT22;218;51.902;9.542;2023-02-10T09:38:16;8.20;1.00
463;DHT22;218;51.902;9.542;2023-02-10T09:40:49;8.10;1.00
463;DHT22;218;51.902;9.542;2023-02-10T09:43:28;8.20;1.00
463;DHT22;218;51.902;9.542;2023-02-10T09:46:15;8.20;1.00
463;DHT22;218;51.902;9.542;2023-02-10T09:48:54;8.20;1.00
463;DHT22;218;51.902;9.542;2023-02-10T09:51:37;8.30;1.00
463;DHT22;218;51.902;9.542;2023-02-10T09:54:09;8.30;1.00
463;DHT22;218;51.902;9.542;2023-02-10T09:56:37;8.40;1.00
463;DHT22;218;51.902;9.542;2023-02-10T09:59:06;8.40;1.00
463;DHT22;218;51.902;9.542;2023-02-10T10:01:39;8.30;1.00
463;DHT22;218;51.902;9.542;2023-02-10T10:04:09;8.30;1.00
463;DHT22;218;51.902;9.542;2023-02-10T10:09:18;8.50;1.00
463;DHT22;218;51.902;9.542;2023-02-10T10:17:15;8.50;1.00
463;DHT22;218;51.902;9.542;2023-02-10T10:25:20;8.50;1.00
463;DHT22;218;51.902;9.542;2023-02-10T10:27:55;8.50;1.00
463;DHT22;218;51.902;9.542;2023-02-10T10:33:00;8.80;1.00
463;DHT22;218;51.902;9.542;2023-02-10T10:43:03;8.90;1.00
463;DHT22;218;51.902;9.542;2023-02-10T10:45:33;8.80;1.00
463;DHT22;218;51.902;9.542;2023-02-10T10:48:07;8.90;1.00
463;DHT22;218;51.902;9.542;2023-02-10T10:50:35;9.00;1.00
463;DHT22;218;51.902;9.542;2023-02-10T10:53:11;8.90;1.00
463;DHT22;218;51.902;9.542;2023-02-10T10:55:43;9.00;1.00
463;DHT22;218;51.902;9.542;2023-02-10T10:58:23;9.10;1.00
463;DHT22;218;51.902;9.542;2023-02-10T11:08:27;9.10;1.00
463;DHT22;218;51.902;9.542;2023-02-10T11:13:27;9.10;1.00
463;DHT22;218;51.902;9.542;2023-02-10T11:16:00;9.20;1.00
463;DHT22;218;51.902;9.542;2023-02-10T11:20:57;9.20;1.00
463;DHT22;218;51.902;9.542;2023-02-10T11:23:25;9.10;1.00
463;DHT22;218;51.902;9.542;2023-02-10T11:30:57;9.30;1.00
463;DHT22;218;51.902;9.542;2023-02-10T11:33:27;9.20;1.00
463;DHT22;218;51.902;9.542;2023-02-10T11:35:59;9.30;1.00
463;DHT22;218;51.902;9.542;2023-02-10T11:38:27;9.40;1.00
463;DHT22;218;51.902;9.542;2023-02-10T11:45:56;9.40;1.00
463;DHT22;218;51.902;9.542;2023-02-10T11:48:26;9.60;1.00
463;DHT22;218;51.902;9.542;2023-02-10T11:53:31;9.60;1.00
463;DHT22;218;51.902;9.542;2023-02-10T11:56:01;9.60;1.00
463;DHT22;218;51.902;9.542;2023-02-10T11:58:49;10.00;1.00
463;DHT22;218;51.902;9.542;2023-02-10T12:01:44;9.80;1.00
463;DHT22;218;51.902;9.542;2023-02-10T12:17:42;10.00;1.00
463;DHT22;218;51.902;9.542;2023-02-10T12:20:28;10.10;1.00
463;DHT22;218;51.902;9.542;2023-02-10T12:23:17;10.40;1.00
463;DHT22;218;51.902;9.542;2023-02-10T12:25:54;10.30;1.00
463;DHT22;218;51.902;9.542;2023-02-10T12:31:05;10.40;1.00
463;DHT22;218;51.902;9.542;2023-02-10T12:41:19;10.60;1.00
463;DHT22;218;51.902;9.542;2023-02-10T12:43:58;10.70;1.00
463;DHT22;218;51.902;9.542;2023-02-10T12:49:09;10.50;1.00
463;DHT22;218;51.902;9.542;2023-02-10T12:54:17;10.80;1.00
463;DHT22;218;51.902;9.542;2023-02-10T12:56:49;11.10;1.00
463;DHT22;218;51.902;9.542;2023-02-10T12:59:21;10.90;1.00
463;DHT22;218;51.902;9.542;2023-02-10T13:22:02;11.20;1.00
463;DHT22;218;51.902;9.542;2023-02-10T13:27:25;11.20;1.00
463;DHT22;218;51.902;9.542;2023-02-10T13:37:36;11.30;1.00
463;DHT22;218;51.902;9.542;2023-02-10T13:40:14;11.40;1.00
463;DHT22;218;51.902;9.542;2023-02-10T13:45:16;11.50;1.00
463;DHT22;218;51.902;9.542;2023-02-10T13:50:22;11.70;1.00
463;DHT22;218;51.902;9.542;2023-02-10T13:55:28;11.80;1.00
463;DHT22;218;51.902;9.542;2023-02-10T14:03:01;11.60;1.00
463;DHT22;218;51.902;9.542;2023-02-10T14:05:30;11.80;1.00
463;DHT22;218;51.902;9.542;2023-02-10T14:22:56;11.80;1.00
463;DHT22;218;51.902;9.542;2023-02-10T14:40:20;11.50;1.00
463;DHT22;218;51.902;9.542;2023-02-10T14:45:19;12.10;1.00
463;DHT22;218;51.902;9.542;2023-02-10T14:47:49;11.80;1.00
463;DHT22;218;51.902;9.542;2023-02-10T14:55:23;11.60;1.00
463;DHT22;218;51.902;9.542;2023-02-10T15:07:47;11.60;1.00
463;DHT22;218;51.902;9.542;2023-02-10T15:15:23;11.40;1.00
463;DHT22;218;51.902;9.542;2023-02-10T15:17:54;11.70;1.00
463;DHT22;218;51.902;9.542;2023-02-10T15:30:51;11.30;1.00
463;DHT22;218;51.902;9.542;2023-02-10T15:33:21;11.20;1.00
463;DHT22;218;51.902;9.542;2023-02-10T15:35:55;10.90;1.00
463;DHT22;218;51.902;9.542;2023-02-10T15:53:19;10.60;1.00
463;DHT22;218;51.902;9.542;2023-02-10T15:55:47;10.30;1.00
463;DHT22;218;51.902;9.542;2023-02-10T15:58:16;10.50;1.00
463;DHT22;218;51.902;9.542;2023-02-10T16:05:39;10.30;1.00
463;DHT22;218;51.902;9.542;2023-02-10T16:20:31;8.50;1.00
463;DHT22;218;51.902;9.542;2023-02-10T16:30:23;7.40;1.00
463;DHT22;218;51.902;9.542;2023-02-10T16:35:20;7.20;1.00
463;DHT22;218;51.902;9.542;2023-02-10T16:37:47;6.80;1.00
463;DHT22;218;51.902;9.542;2023-02-10T16:40:17;6.80;1.00
463;DHT22;218;51.902;9.542;2023-02-10T16:42:47;6.60;1.00
463;DHT22;218;51.902;9.542;2023-02-10T16:45:15;6.60;1.00
463;DHT22;218;51.902;9.542;2023-02-10T16:47:42;6.40;1.00
463;DHT22;218;51.902;9.542;2023-02-10T16:50:17;7.30;1.00
463;DHT22;218;51.902;9.542;2023-02-10T16:52:45;6.40;1.00
463;DHT22;218;51.902;9.542;2023-02-10T16:55:15;6.20;1.00
463;DHT22;218;51.902;9.542;2023-02-10T16:57:44;6.30;1.00
463;DHT22;218;51.902;9.542;2023-02-10T17:00:13;6.10;1.00
463;DHT22;218;51.902;9.542;2023-02-10T17:02:40;6.00;1.00
463;DHT22;218;51.902;9.542;2023-02-10T17:05:08;6.00;1.00
463;DHT22;218;51.902;9.542;2023-02-10T17:07:37;5.90;1.00
463;DHT22;218;51.902;9.542;2023-02-10T17:10:06;5.90;1.00
463;DHT22;218;51.902;9.542;2023-02-10T17:12:35;5.90;1.00
463;DHT22;218;51.902;9.542;2023-02-10T17:15:05;6.60;1.00
463;DHT22;218;51.902;9.542;2023-02-10T17:17:33;5.80;1.00
463;DHT22;218;51.902;9.542;2023-02-10T17:20:00;5.70;1.00
463;DHT22;218;51.902;9.542;2023-02-10T17:22:26;5.70;1.00
463;DHT22;218;51.902;9.542;2023-02-10T17:24:55;5.70;1.00
463;DHT22;218;51.902;9.542;2023-02-10T17:27:22;6.60;1.00
463;DHT22;218;51.902;9.542;2023-02-10T17:29:49;6.30;1.00
463;DHT22;218;51.902;9.542;2023-02-10T17:32:16;5.60;1.00
463;DHT22;218;51.902;9.542;2023-02-10T17:34:43;5.50;1.00
463;DHT22;218;51.902;9.542;2023-02-10T17:37:13;5.50;1.00
463;DHT22;218;51.902;9.542;2023-02-10T17:39:39;5.50;1.00
463;DHT22;218;51.902;9.542;2023-02-10T17:42:08;5.40;1.00
463;DHT22;218;51.902;9.542;2023-02-10T17:44:35;5.40;1.00
463;DHT22;218;51.902;9.542;2023-02-10T17:47:02;5.30;1.00
463;DHT22;218;51.902;9.542;2023-02-10T17:49:31;5.20;1.00
463;DHT22;218;51.902;9.542;2023-02-10T17:51:59;5.10;1.00
463;DHT22;218;51.902;9.542;2023-02-10T17:54:26;5.10;1.00
463;DHT22;218;51.902;9.542;2023-02-10T17:56:56;5.00;1.00
463;DHT22;218;51.902;9.542;2023-02-10T17:59:24;4.90;1.00
463;DHT22;218;51.902;9.542;2023-02-10T18:01:51;5.30;1.00
463;DHT22;218;51.902;9.542;2023-02-10T18:04:21;4.80;1.00
463;DHT22;218;51.902;9.542;2023-02-10T18:06:48;4.70;1.00
463;DHT22;218;51.902;9.542;2023-02-10T18:09:15;4.70;1.00
463;DHT22;218;51.902;9.542;2023-02-10T18:11:45;4.90;1.00
463;DHT22;218;51.902;9.542;2023-02-10T18:14:12;4.60;1.00
463;DHT22;218;51.902;9.542;2023-02-10T18:16:40;4.60;1.00
463;DHT22;218;51.902;9.542;2023-02-10T18:19:07;4.60;1.00
463;DHT22;218;51.902;9.542;2023-02-10T18:21:34;5.70;1.00
463;DHT22;218;51.902;9.542;2023-02-10T18:24:01;6.90;1.00
463;DHT22;218;51.902;9.542;2023-02-10T18:26:28;4.50;1.00
463;DHT22;218;51.902;9.542;2023-02-10T18:28:55;5.10;1.00
463;DHT22;218;51.902;9.542;2023-02-10T18:31:22;4.80;1.00
463;DHT22;218;51.902;9.542;2023-02-10T18:33:51;5.80;1.00
463;DHT22;218;51.902;9.542;2023-02-10T18:36:18;4.70;1.00
463;DHT22;218;51.902;9.542;2023-02-10T18:38:45;4.70;1.00
463;DHT22;218;51.902;9.542;2023-02-10T18:41:14;4.80;1.00
463;DHT22;218;51.902;9.542;2023-02-10T18:43:41;5.00;1.00
463;DHT22;218;51.902;9.542;2023-02-10T18:46:08;6.30;1.00
463;DHT22;218;51.902;9.542;2023-02-10T18:48:35;4.80;1.00
463;DHT22;218;51.902;9.542;2023-02-10T18:51:05;5.40;1.00
463;DHT22;218;51.902;9.542;2023-02-10T18:53:33;4.90;1.00
463;DHT22;218;51.902;9.542;2023-02-10T18:56:05;4.90;1.00
463;DHT22;218;51.902;9.542;2023-02-10T18:58:32;5.00;1.00
463;DHT22;218;51.902;9.542;2023-02-10T19:01:02;4.90;1.00
463;DHT22;218;51.902;9.542;2023-02-10T19:03:30;5.50;1.00
463;DHT22;218;51.902;9.542;2023-02-10T19:05:56;4.90;1.00
463;DHT22;218;51.902;9.542;2023-02-10T19:08:27;5.20;1.00
463;DHT22;218;51.902;9.542;2023-02-10T19:10:59;5.40;1.00
463;DHT22;218;51.902;9.542;2023-02-10T19:13:26;4.40;1.00
463;DHT22;218;51.902;9.542;2023-02-10T19:15:53;6.60;1.00
463;DHT22;218;51.902;9.542;2023-02-10T19:18:21;5.30;1.00
463;DHT22;218;51.902;9.542;2023-02-10T19:20:48;5.90;1.00
463;DHT22;218;51.902;9.542;2023-02-10T19:23:14;5.50;1.00
463;DHT22;218;51.902;9.542;2023-02-10T19:25:46;5.60;1.00
463;DHT22;218;51.902;9.542;2023-02-10T19:28:19;5.70;1.00
463;DHT22;218;51.902;9.542;2023-02-10T19:30:46;5.80;1.00
463;DHT22;218;51.902;9.542;2023-02-10T19:33:13;5.90;1.00
463;DHT22;218;51.902;9.542;2023-02-10T19:35:45;6.10;1.00
463;DHT22;218;51.902;9.542;2023-02-10T19:38:12;6.60;1.00
463;DHT22;218;51.902;9.542;2023-02-10T19:40:39;6.10;1.00
463;DHT22;218;51.902;9.542;2023-02-10T19:43:07;6.30;1.00
463;DHT22;218;51.902;9.542;2023-02-10T19:45:34;6.30;1.00
463;DHT22;218;51.902;9.542;2023-02-10T19:48:01;6.40;1.00
463;DHT22;218;51.902;9.542;2023-02-10T19:50:28;6.70;1.00
463;DHT22;218;51.902;9.542;2023-02-10T19:52:55;6.50;1.00
463;DHT22;218;51.902;9.542;2023-02-10T19:55:22;6.60;1.00
463;DHT22;218;51.902;9.542;2023-02-10T19:57:49;6.60;1.00
463;DHT22;218;51.902;9.542;2023-02-10T20:00:17;6.70;1.00
463;DHT22;218;51.902;9.542;2023-02-10T20:02:44;6.60;1.00
463;DHT22;218;51.902;9.542;2023-02-10T20:05:11;7.80;1.00
463;DHT22;218;51.902;9.542;2023-02-10T20:07:38;6.70;1.00
463;DHT22;218;51.902;9.542;2023-02-10T20:10:06;6.70;1.00
463;DHT22;218;51.902;9.542;2023-02-10T20:12:33;6.70;1.00
463;DHT22;218;51.902;9.542;2023-02-10T20:15:00;6.80;1.00
463;DHT22;218;51.902;9.542;2023-02-10T20:17:28;8.50;1.00
463;DHT22;218;51.902;9.542;2023-02-10T20:19:55;6.80;1.00
463;DHT22;218;51.902;9.542;2023-02-10T20:22:22;6.80;1.00
463;DHT22;218;51.902;9.542;2023-02-10T20:24:49;7.10;1.00
463;DHT22;218;51.902;9.542;2023-02-10T20:27:16;6.70;1.00
463;DHT22;218;51.902;9.542;2023-02-10T20:29:43;6.70;1.00
463;DHT22;218;51.902;9.542;2023-02-10T20:32:10;6.60;1.00
463;DHT22;218;51.902;9.542;2023-02-10T20:34:38;8.90;1.00
463;DHT22;218;51.902;9.542;2023-02-10T20:37:05;6.80;1.00
463;DHT22;218;51.902;9.542;2023-02-10T20:39:32;6.70;1.00
463;DHT22;218;51.902;9.542;2023-02-10T20:41:59;9.40;1.00
463;DHT22;218;51.902;9.542;2023-02-10T20:44:26;6.80;1.00
463;DHT22;218;51.902;9.542;2023-02-10T20:46:53;6.80;1.00
463;DHT22;218;51.902;9.542;2023-02-10T20:49:20;6.80;1.00
463;DHT22;218;51.902;9.542;2023-02-10T20:51:48;6.80;1.00
463;DHT22;218;51.902;9.542;2023-02-10T20:54:15;6.90;1.00
463;DHT22;218;51.902;9.542;2023-02-10T20:56:42;7.20;1.00
463;DHT22;218;51.902;9.542;2023-02-10T20:59:09;9.40;1.00
463;DHT22;218;51.902;9.542;2023-02-10T21:01:36;7.30;1.00
463;DHT22;218;51.902;9.542;2023-02-10T21:04:03;7.30;1.00
463;DHT22;218;51.902;9.542;2023-02-10T21:11:28;7.60;1.00
463;DHT22;218;51.902;9.542;2023-02-10T21:16:22;7.60;1.00
463;DHT22;218;51.902;9.542;2023-02-10T21:21:18;7.60;1.00
463;DHT22;218;51.902;9.542;2023-02-10T21:26:14;7.60;1.00
463;DHT22;218;51.902;9.542;2023-02-10T21:28:41;7.60;1.00
463;DHT22;218;51.902;9.542;2023-02-10T21:31:09;7.60;1.00
463;DHT22;218;51.902;9.542;2023-02-10T21:33:37;7.60;1.00
463;DHT22;218;51.902;9.542;2023-02-10T21:45:58;7.70;1.00
463;DHT22;218;51.902;9.542;2023-02-10T21:48:25;7.70;1.00
463;DHT22;218;51.902;9.542;2023-02-10T21:50:52;7.80;1.00
463;DHT22;218;51.902;9.542;2023-02-10T21:53:19;7.90;1.00